Flight Track Log - Related Links

Times and Time Zones

All times are in EDT time to prevent confusion due to time zone crossing. See the N779NC flight status page for this flight to view local times or setup timezone preferences in your user account.

Time Position Orientation Groundspeed Altitude Reporting Facility
EDT Latitude Longitude Course Direction KTS MPH feet Rate Location/Type
Sun 02:44:48 PM 33.6500 -84.5000 12° North 213 245 2,500  Level Atlanta TRACON
Sun 02:45:49 PM 33.6833 -84.5667 301° West 269 310 4,400 2,031 Climbing Atlanta TRACON
Sun 02:46:55 PM 33.7667 -84.6000 342° North 282 325 6,800 2,160 Climbing Atlanta TRACON
Sun 02:47:54 PM 33.8333 -84.5500 32° Northeast 299 344 8,900 1,745 Climbing Atlanta TRACON
Sun 02:48:00 PM 34.2858 -84.2778 12° North  Level FlightAware Approximate
Sun 02:49:00 PM 34.4155 -84.2443 12° North  Level FlightAware Approximate
Sun 02:49:40 PM 33.9772 -84.4572 28° Northeast 335 386 11,600  Level Atlanta Center
Sun 02:50:00 PM 34.5451 -84.2106 12° North  Level FlightAware Approximate
Sun 02:50:40 PM 34.0797 -84.4200 17° North 365 420 12,900  Level Atlanta Center
Sun 02:52:00 PM 34.2507 -84.3658 12° North  Level Estimated
Sun 02:52:40 PM 34.2844 -84.3481 12° North 399 459 16,000  Level Atlanta Center
Sun 02:53:40 PM 34.3931 -84.3131 15° North 399 459 17,300 1,300 Climbing Atlanta Center
Sun 02:54:40 PM 34.5058 -84.2706 17° North 406 467 18,600 1,300 Climbing Atlanta Center
Sun 02:55:40 PM 34.6247 -84.2356 14° North 423 487 19,900 1,200 Climbing Atlanta Center
Sun 02:57:40 PM 34.8731 -84.1603 14° North 433 498 22,200 1,000 Climbing Atlanta Center
Sun 02:58:40 PM 35.0006 -84.1428 North 445 512 22,900 900 Climbing Atlanta Center
Sun 02:59:40 PM 35.1319 -84.1097 12° North 456 525 24,000 850 Climbing Atlanta Center
Sun 03:00:40 PM 35.2633 -84.0844 North 468 539 24,600 750 Climbing Atlanta Center
Sun 03:01:40 PM 35.3969 -84.0489 12° North 473 544 25,500 725 Climbing Atlanta Center
Sun 03:03:00 PM 35.5648 -83.9809 18° North  Level FlightAware Approximate
Sun 03:04:40 PM 35.8081 -83.9286 28° Northeast 500 575 27,500  Level Atlanta Center
Sun 03:06:40 PM 36.0872 -83.8281 16° North 510 587 28,800 568 Climbing Atlanta Center
Sun 03:07:29 PM 36.1958 -83.7767 21° North 536 617 29,100 436 Climbing Indianapolis Center
Sun 03:08:30 PM 36.3250 -83.6842 30° Northeast 539 620 29,600 488 Climbing Indianapolis Center
Sun 03:09:32 PM 36.4453 -83.5697 37° Northeast 546 628 30,100 484 Climbing Indianapolis Center
Sun 03:10:00 PM 36.4182 -83.5469 28° Northeast  Level FlightAware Approximate
Sun 03:10:34 PM 36.5853 -83.4611 32° Northeast 545 627 30,600  Level Indianapolis Center
Sun 03:11:36 PM 36.7247 -83.3781 26° Northeast 550 633 30,900 194 Climbing Indianapolis Center
Sun 03:12:38 PM 36.8617 -83.2872 28° Northeast 551 634 31,000 49 Climbing Indianapolis Center
Sun 03:13:39 PM 37.0047 -83.2122 23° Northeast 549 632 31,000  Level Indianapolis Center
Sun 03:14:41 PM 37.1489 -83.1414 21° North 548 631 31,000  Level Indianapolis Center
Sun 03:15:43 PM 37.2875 -83.0592 25° Northeast 543 625 31,000  Level Indianapolis Center
Sun 03:16:45 PM 37.4247 -82.9750 26° Northeast 543 625 31,000  Level Indianapolis Center
Sun 03:17:47 PM 37.5811 -82.8708 28° Northeast 543 625 31,000  Level Indianapolis Center
Sun 03:18:48 PM 37.7194 -82.7900 25° Northeast 545 627 31,000  Level Indianapolis Center
Sun 03:19:50 PM 37.8578 -82.7125 24° Northeast 543 625 31,000  Level Indianapolis Center
Sun 03:20:52 PM 37.9969 -82.6358 23° Northeast 544 626 31,000  Level Indianapolis Center
Sun 03:21:54 PM 38.1333 -82.5506 26° Northeast 545 627 31,000  Level Indianapolis Center
Sun 03:22:55 PM 38.2861 -82.4714 22° Northeast 544 626 31,000  Level Indianapolis Center
Sun 03:23:57 PM 38.4247 -82.3914 24° Northeast 545 627 31,000  Level Indianapolis Center
Sun 03:24:59 PM 38.5608 -82.3014 27° Northeast 547 629 31,000  Level Indianapolis Center
Sun 03:26:01 PM 38.6992 -82.2167 26° Northeast 547 629 31,000  Level Indianapolis Center
Sun 03:27:02 PM 38.8486 -82.1819 10° North 541 623 31,000  Level Indianapolis Center
Sun 03:28:04 PM 38.9969 -82.1944 356° North 532 612 31,000  Level Indianapolis Center
Sun 03:29:06 PM 39.1458 -82.1992 359° North 532 612 31,000  Level Indianapolis Center
Sun 03:30:08 PM 39.2961 -82.1889 North 537 618 31,000 -1,200 Level Indianapolis Center
Sun 03:32:11 PM 39.6039 -82.2178 356° North 519 597 27,300 -1,719 Descending Indianapolis Center
Sun 03:33:13 PM 39.7389 -82.2586 347° North 498 573 25,700 -1,694 Descending Indianapolis Center
Sun 03:34:15 PM 39.8894 -82.2981 349° North 475 547 23,800 -1,122 Descending Indianapolis Center
Sun 03:35:16 PM 40.0158 -82.2786 North 460 529 23,400 -1,122 Descending Indianapolis Center
Sun 03:36:18 PM 40.1433 -82.2444 12° North 464 534 21,500 -1,694 Descending Indianapolis Center
Sun 03:37:20 PM 40.2592 -82.2117 12° North 452 520 19,900 -1,756 Descending Indianapolis Center
Sun 03:38:21 PM 40.3761 -82.1572 20° North 444 511 17,900 -1,805 Descending Indianapolis Center
Sun 03:39:23 PM 40.4881 -82.0975 22° Northeast 432 497 16,200 -1,805 Descending Indianapolis Center
Sun 03:40:24 PM 40.6044 -82.0069 31° Northeast 413 475 14,200 -1,871 Descending Indianapolis Center
Sun 03:40:56 PM 40.6489 -81.9597 39° Northeast 403 464 13,300 -1,295 Descending Cleveland Center
Sun 03:41:52 PM 40.7206 -81.8844 39° Northeast 394 453 12,300 -1,371 Descending Cleveland Center
Sun 03:43:16 PM 40.8469 -81.7717 34° Northeast 377 434 10,100 -1,150 Descending Cleveland Center
Sun 03:43:52 PM 40.8911 -81.7367 31° Northeast 371 427 10,000 -83 Descending Cleveland Center
Sun 03:44:28 PM 40.9597 -81.7433 356° North 343 395 10,000 -247 Level Cleveland Center
Sun 03:45:29 PM 41.0428 -81.7833 340° North 314 361 9,600 -887 Descending Cleveland Center
Sun 03:46:23 PM 41.0794 -81.8611 302° West 275 316 8,300 -1,670 Descending Cleveland Center
Sun 03:47:24 PM 41.1325 -81.9422 311° West 281 323 6,400 -1,734 Descending Cleveland Center
Sun 03:48:31 PM 41.1881 -82.0233 312° West 270 311 4,600 -1,486 Descending Cleveland Center
Sun 03:49:13 PM 41.2292 -82.0686 320° Northwest 265 305 3,700 -1,286 Descending Cleveland Center

Login

Don't have an account? Register now (free) for customized features, flight alerts, and more!